createdAt,value
2022-08-04T00:01:02.220Z,19.76
2022-08-04T00:03:39.458Z,19.73
2022-08-04T00:06:29.766Z,19.70
2022-08-04T00:09:07.857Z,19.63
2022-08-04T00:11:35.144Z,19.63
2022-08-04T00:14:11.371Z,19.57
2022-08-04T00:16:40.878Z,19.57
2022-08-04T00:19:18.307Z,19.59
2022-08-04T00:21:55.927Z,19.61
2022-08-04T00:24:22.933Z,19.50
2022-08-04T00:26:53.809Z,19.46
2022-08-04T00:29:21.994Z,19.42
2022-08-04T00:31:54.835Z,19.42
2022-08-04T00:34:28.527Z,19.39
2022-08-04T00:36:56.984Z,19.30
2022-08-04T00:39:24.770Z,19.26
2022-08-04T00:42:49.457Z,19.22
2022-08-04T00:46:14.151Z,19.17
2022-08-04T00:49:03.255Z,19.20
2022-08-04T00:51:42.910Z,19.17
2022-08-04T00:54:21.165Z,19.12
2022-08-04T00:57:28.561Z,19.13
2022-08-04T01:00:11.809Z,19.12
2022-08-04T01:02:51.565Z,19.02
2022-08-04T01:05:28.849Z,18.97
2022-08-04T01:08:20.096Z,18.96
2022-08-04T01:11:03.587Z,18.96
2022-08-04T01:13:54.719Z,18.88
2022-08-04T01:16:26.251Z,18.80
2022-08-04T01:18:58.797Z,18.82
2022-08-04T01:21:44.478Z,18.79
2022-08-04T01:24:30.142Z,18.79
2022-08-04T01:27:21.350Z,18.74
2022-08-04T01:29:56.651Z,18.70
2022-08-04T01:32:32.296Z,18.67
2022-08-04T01:35:46.920Z,18.68
2022-08-04T01:38:35.157Z,18.69
2022-08-04T01:41:10.037Z,18.62
2022-08-04T01:43:42.335Z,18.61
2022-08-04T01:46:14.788Z,18.58
2022-08-04T01:48:44.966Z,18.56
2022-08-04T01:51:12.129Z,18.49
2022-08-04T01:53:43.889Z,18.45
2022-08-04T01:56:12.677Z,18.45
2022-08-04T01:58:40.341Z,18.45
2022-08-04T02:01:09.481Z,18.46
2022-08-04T02:04:20.631Z,18.43
2022-08-04T02:06:39.164Z,18.39
2022-08-04T02:09:22.942Z,18.30
2022-08-04T02:12:02.381Z,18.30
2022-08-04T02:14:45.124Z,18.28
2022-08-04T02:17:26.249Z,18.30
2022-08-04T02:20:05.245Z,18.29
2022-08-04T02:22:34.200Z,18.29
2022-08-04T02:25:07.863Z,18.21
2022-08-04T02:28:09.986Z,18.14
2022-08-04T02:30:46.826Z,18.09
2022-08-04T02:33:19.404Z,18.08
2022-08-04T02:35:51.842Z,18.08
2022-08-04T02:38:27.784Z,18.01
2022-08-04T02:40:56.558Z,18.06
2022-08-04T02:43:52.153Z,18.02
2022-08-04T02:46:18.334Z,18.01
2022-08-04T02:48:47.742Z,17.94
2022-08-04T02:51:17.330Z,17.88
2022-08-04T02:53:46.250Z,17.85
2022-08-04T02:56:18.930Z,17.89
2022-08-04T02:58:49.091Z,17.87
2022-08-04T03:01:15.733Z,17.86
2022-08-04T03:03:59.501Z,17.79
2022-08-04T03:06:49.518Z,17.78
2022-08-04T03:09:54.378Z,17.80
2022-08-04T03:12:59.857Z,17.76
2022-08-04T03:15:35.343Z,17.78
2022-08-04T03:18:17.633Z,17.76
2022-08-04T03:21:26.190Z,17.72
2022-08-04T03:24:07.852Z,17.65
2022-08-04T03:26:53.093Z,17.60
2022-08-04T03:29:37.877Z,17.63
2022-08-04T03:32:23.745Z,17.68
2022-08-04T03:35:22.931Z,17.64
2022-08-04T03:38:37.291Z,17.56
2022-08-04T03:41:13.888Z,17.55
2022-08-04T03:44:01.986Z,17.55
2022-08-04T03:46:46.641Z,17.53
2022-08-04T03:49:26.228Z,17.48
2022-08-04T03:52:33.127Z,17.46
2022-08-04T03:55:21.211Z,17.43
2022-08-04T03:58:09.752Z,17.45
2022-08-04T04:00:44.546Z,17.44
2022-08-04T04:03:37.218Z,17.39
2022-08-04T04:06:22.237Z,17.36
2022-08-04T04:09:16.190Z,17.34
2022-08-04T04:12:17.507Z,17.37
2022-08-04T04:15:08.738Z,17.35
2022-08-04T04:18:02.693Z,17.41
2022-08-04T04:21:10.410Z,17.42
2022-08-04T04:23:45.630Z,17.44
2022-08-04T04:26:55.008Z,17.44
2022-08-04T04:29:59.229Z,17.44
2022-08-04T04:32:46.614Z,17.37
2022-08-04T04:35:44.257Z,17.43
2022-08-04T04:38:31.377Z,17.47
2022-08-04T04:41:26.152Z,17.45
2022-08-04T04:44:20.647Z,17.43
2022-08-04T04:46:58.999Z,17.45
2022-08-04T04:49:37.905Z,17.49
2022-08-04T04:52:24.234Z,17.55
2022-08-04T04:55:02.941Z,17.54
2022-08-04T04:57:54.401Z,17.48
2022-08-04T05:00:23.854Z,17.52
2022-08-04T05:03:09.666Z,17.58
2022-08-04T05:06:04.940Z,17.59
2022-08-04T05:09:04.743Z,17.63
2022-08-04T05:11:36.909Z,17.67
2022-08-04T05:14:35.069Z,17.68
2022-08-04T05:17:06.288Z,17.76
2022-08-04T05:19:53.908Z,17.82
2022-08-04T05:22:26.160Z,17.84
2022-08-04T05:25:03.733Z,17.90
2022-08-04T05:27:40.181Z,17.86
2022-08-04T05:30:08.089Z,17.95
2022-08-04T05:32:51.740Z,18.01
2022-08-04T05:35:52.083Z,18.10
2022-08-04T05:38:27.457Z,18.24
2022-08-04T05:40:54.871Z,18.34
2022-08-04T05:43:25.558Z,18.40
2022-08-04T05:45:53.423Z,18.42
2022-08-04T05:48:20.679Z,18.48
2022-08-04T05:50:50.073Z,18.57
2022-08-04T05:53:17.943Z,18.62
2022-08-04T05:55:48.887Z,18.69
2022-08-04T05:58:29.573Z,18.76
2022-08-04T06:00:58.204Z,18.85
2022-08-04T06:03:25.856Z,18.92
2022-08-04T06:05:53.035Z,18.98
2022-08-04T06:08:19.648Z,19.05
2022-08-04T06:10:48.181Z,19.13
2022-08-04T06:13:48.531Z,19.20
2022-08-04T06:16:07.866Z,19.31
2022-08-04T06:20:02.308Z,19.42
2022-08-04T06:21:33.162Z,19.50
2022-08-04T06:24:04.606Z,19.58
2022-08-04T06:26:34.940Z,19.68
2022-08-04T06:29:03.239Z,19.77
2022-08-04T06:32:29.456Z,19.85
2022-08-04T06:34:32.530Z,19.94
2022-08-04T06:36:59.600Z,20.02
2022-08-04T06:39:29.290Z,20.14
2022-08-04T06:42:21.718Z,20.26
2022-08-04T06:44:48.994Z,20.37
2022-08-04T06:47:19.569Z,20.48
2022-08-04T06:51:26.757Z,20.59
2022-08-04T06:52:35.065Z,20.74
2022-08-04T06:55:02.471Z,20.81
2022-08-04T06:57:30.212Z,20.94
2022-08-04T07:00:11.883Z,21.06
2022-08-04T07:02:45.941Z,21.20
2022-08-04T07:05:13.035Z,21.31
2022-08-04T07:07:56.817Z,21.45
2022-08-04T07:10:28.766Z,21.60
2022-08-04T07:12:57.491Z,21.77
2022-08-04T07:15:25.112Z,21.97
2022-08-04T07:17:52.956Z,22.15
2022-08-04T07:20:30.471Z,22.37
2022-08-04T07:23:06.451Z,22.58
2022-08-04T07:26:00.991Z,22.79
2022-08-04T07:28:30.640Z,22.99
2022-08-04T07:30:58.665Z,23.13
2022-08-04T07:33:26.096Z,23.26
2022-08-04T07:36:10.300Z,23.41
2022-08-04T07:38:50.822Z,23.58
2022-08-04T07:41:39.051Z,23.69
2022-08-04T07:44:07.342Z,23.79
2022-08-04T07:46:34.316Z,23.88
2022-08-04T07:49:01.396Z,24.01
2022-08-04T07:51:30.475Z,24.16
2022-08-04T07:53:57.749Z,24.37
2022-08-04T07:56:26.733Z,24.42
2022-08-04T07:58:53.965Z,24.57
2022-08-04T08:01:21.487Z,24.65
2022-08-04T08:03:49.640Z,24.76
2022-08-04T08:06:32.785Z,24.91
2022-08-04T08:09:12.462Z,24.99
2022-08-04T08:12:37.863Z,25.06
2022-08-04T08:14:33.600Z,25.23
2022-08-04T08:17:02.568Z,25.26
2022-08-04T08:19:31.459Z,25.32
2022-08-04T08:22:00.779Z,25.39
2022-08-04T08:24:34.902Z,25.44
2022-08-04T08:27:04.253Z,25.49
2022-08-04T08:29:34.162Z,25.61
2022-08-04T08:32:07.857Z,25.75
2022-08-04T08:34:35.558Z,25.77
2022-08-04T08:37:18.000Z,25.87
2022-08-04T08:40:14.239Z,25.92
2022-08-04T08:44:04.482Z,26.03
2022-08-04T08:46:48.357Z,26.05
2022-08-04T08:50:01.048Z,26.13
2022-08-04T08:52:57.499Z,26.19
2022-08-04T08:55:56.941Z,26.27
2022-08-04T08:58:38.559Z,26.30
2022-08-04T09:01:36.768Z,26.40
2022-08-04T09:04:03.377Z,26.41
2022-08-04T09:06:50.927Z,26.39
2022-08-04T09:09:36.487Z,26.48
2022-08-04T09:12:25.857Z,26.53
2022-08-04T09:15:15.335Z,26.62
2022-08-04T09:17:49.313Z,26.58
2022-08-04T09:20:28.947Z,26.46
2022-08-04T09:23:20.276Z,26.54
2022-08-04T09:26:08.475Z,26.63
2022-08-04T09:28:55.102Z,26.62
2022-08-04T09:31:49.019Z,26.58
2022-08-04T09:34:22.146Z,26.66
2022-08-04T09:36:56.764Z,26.78
2022-08-04T09:39:29.538Z,27.00
2022-08-04T09:42:11.867Z,27.22
2022-08-04T09:45:06.773Z,27.33
2022-08-04T09:47:59.031Z,27.35
2022-08-04T09:50:32.117Z,27.52
2022-08-04T09:53:36.534Z,27.52
2022-08-04T09:56:23.522Z,27.46
2022-08-04T09:58:52.568Z,27.51
2022-08-04T10:01:23.804Z,27.47
2022-08-04T10:04:02.785Z,27.58
2022-08-04T10:06:57.252Z,27.57
2022-08-04T10:09:45.255Z,27.63
2022-08-04T10:12:23.820Z,27.80
2022-08-04T10:15:20.400Z,28.00
2022-08-04T10:18:15.755Z,28.21
2022-08-04T10:20:56.823Z,28.30
2022-08-04T10:23:30.767Z,28.51
2022-08-04T10:26:26.211Z,28.60
2022-08-04T10:29:04.565Z,28.78
2022-08-04T10:31:35.260Z,28.94
2022-08-04T10:34:04.402Z,29.07
2022-08-04T10:36:41.422Z,29.17
2022-08-04T10:39:41.850Z,29.31
2022-08-04T10:42:24.966Z,29.46
2022-08-04T10:45:10.144Z,29.57
2022-08-04T10:47:44.059Z,29.79
2022-08-04T10:50:23.515Z,29.93
2022-08-04T10:53:01.056Z,30.11
2022-08-04T10:56:06.222Z,30.16
2022-08-04T10:58:47.742Z,30.35
2022-08-04T11:01:59.871Z,30.61
2022-08-04T11:05:12.543Z,30.46
2022-08-04T11:07:43.985Z,30.20
2022-08-04T11:10:12.839Z,30.53
2022-08-04T11:12:42.514Z,30.86
2022-08-04T11:15:30.269Z,31.11
2022-08-04T11:17:59.087Z,31.14
2022-08-04T11:20:53.490Z,31.29
2022-08-04T11:23:26.710Z,31.20
2022-08-04T11:26:00.683Z,31.38
2022-08-04T11:29:03.466Z,31.48
2022-08-04T11:31:39.377Z,31.72
2022-08-04T11:34:19.779Z,31.63
2022-08-04T11:37:32.442Z,31.76
2022-08-04T11:40:07.075Z,32.08
2022-08-04T11:42:43.165Z,32.18
2022-08-04T11:45:24.026Z,32.16
2022-08-04T11:47:58.054Z,32.31
2022-08-04T11:50:53.452Z,32.46
2022-08-04T11:53:22.897Z,32.55
2022-08-04T11:56:07.173Z,32.69
2022-08-04T11:58:36.008Z,32.84
2022-08-04T12:01:25.940Z,32.72
2022-08-04T12:04:04.880Z,32.71
2022-08-04T12:07:15.020Z,32.91
2022-08-04T12:09:48.569Z,32.94
2022-08-04T12:12:44.012Z,33.15
2022-08-04T12:15:29.101Z,32.69
2022-08-04T12:18:19.337Z,32.73
2022-08-04T12:20:50.296Z,33.13
2022-08-04T12:23:24.394Z,33.38
2022-08-04T12:25:55.899Z,33.28
2022-08-04T12:28:52.600Z,33.40
2022-08-04T12:31:26.386Z,33.42
2022-08-04T12:34:14.073Z,33.25
2022-08-04T12:36:47.911Z,33.53
2022-08-04T12:39:20.165Z,33.99
2022-08-04T12:42:09.290Z,34.37
2022-08-04T12:44:39.359Z,34.61
2022-08-04T12:47:27.159Z,34.53
2022-08-04T12:50:05.272Z,34.76
2022-08-04T12:55:30.071Z,34.53
2022-08-04T12:57:58.439Z,34.64
2022-08-04T13:00:31.327Z,34.49
2022-08-04T13:03:09.582Z,34.64
2022-08-04T13:05:38.901Z,34.93
2022-08-04T13:08:07.522Z,35.02
2022-08-04T13:10:39.523Z,34.62
2022-08-04T13:13:13.505Z,34.61
2022-08-04T13:15:47.056Z,35.84
2022-08-04T13:18:28.842Z,37.80
2022-08-04T13:21:20.641Z,39.94
2022-08-04T13:24:10.808Z,39.62
2022-08-04T13:26:54.533Z,39.18
2022-08-04T13:29:59.931Z,39.71
2022-08-04T13:32:16.676Z,42.25
2022-08-04T13:34:48.969Z,42.86
2022-08-04T13:37:20.993Z,43.09
2022-08-04T13:39:55.782Z,43.31
2022-08-04T13:42:25.786Z,42.47
2022-08-04T13:44:57.110Z,41.51
2022-08-04T13:47:29.890Z,40.60
2022-08-04T13:50:23.595Z,39.92
2022-08-04T13:52:53.248Z,39.65
2022-08-04T13:55:28.329Z,39.48
2022-08-04T13:58:09.794Z,39.52
2022-08-04T14:00:48.082Z,39.89
2022-08-04T14:03:24.360Z,39.81
2022-08-04T14:06:16.004Z,39.07
2022-08-04T14:08:47.340Z,38.39
2022-08-04T14:12:10.731Z,38.14
2022-08-04T14:14:14.050Z,38.20
2022-08-04T14:17:20.289Z,38.39
2022-08-04T14:19:47.748Z,38.30
2022-08-04T14:22:26.502Z,38.25
2022-08-04T14:25:04.429Z,38.35
2022-08-04T14:27:51.694Z,38.35
2022-08-04T14:30:28.596Z,38.52
2022-08-04T14:33:56.422Z,38.75
2022-08-04T14:36:04.238Z,38.95
2022-08-04T14:38:51.667Z,39.30
2022-08-04T14:41:29.210Z,39.42
2022-08-04T14:44:00.604Z,38.75
2022-08-04T14:46:36.272Z,38.86
2022-08-04T14:49:10.245Z,39.04
2022-08-04T14:51:55.272Z,39.45
2022-08-04T14:54:30.288Z,39.67
2022-08-04T14:57:01.169Z,39.44
2022-08-04T14:59:40.102Z,39.46
2022-08-04T15:02:13.210Z,40.04
2022-08-04T15:04:41.652Z,40.43
2022-08-04T15:07:09.156Z,40.47
2022-08-04T15:09:35.911Z,40.63
2022-08-04T15:12:04.403Z,40.80
2022-08-04T15:14:37.028Z,40.69
2022-08-04T15:17:11.539Z,41.26
2022-08-04T15:19:39.455Z,41.41
2022-08-04T15:22:06.920Z,41.67
2022-08-04T15:24:44.004Z,41.68
2022-08-04T15:27:16.169Z,41.86
2022-08-04T15:30:00.778Z,40.97
2022-08-04T15:32:34.624Z,41.82
2022-08-04T15:35:28.898Z,42.01
2022-08-04T15:38:00.124Z,41.89
2022-08-04T15:41:05.211Z,41.96
2022-08-04T15:43:56.012Z,42.16
2022-08-04T15:47:03.565Z,42.55
2022-08-04T15:49:30.480Z,42.72
2022-08-04T15:52:12.462Z,42.88
2022-08-04T15:55:09.566Z,42.56
2022-08-04T15:58:01.896Z,42.58
2022-08-04T16:00:28.815Z,41.95
2022-08-04T16:02:55.984Z,42.58
2022-08-04T16:05:23.361Z,42.75
2022-08-04T16:07:54.753Z,42.88
2022-08-04T16:10:30.469Z,43.17
2022-08-04T16:13:06.311Z,43.26
2022-08-04T16:15:43.325Z,42.83
2022-08-04T16:18:26.044Z,42.89
2022-08-04T16:21:03.048Z,43.36
2022-08-04T16:23:56.942Z,42.92
2022-08-04T16:26:38.029Z,42.54
2022-08-04T16:29:29.733Z,42.24
2022-08-04T16:32:05.109Z,42.99
2022-08-04T16:34:49.956Z,43.12
2022-08-04T16:37:20.376Z,42.38
2022-08-04T16:39:50.893Z,42.37
2022-08-04T16:42:36.508Z,42.55
2022-08-04T16:45:08.776Z,42.64
2022-08-04T16:47:47.187Z,42.81
2022-08-04T16:50:19.258Z,43.08
2022-08-04T16:52:48.403Z,43.45
2022-08-04T16:55:17.275Z,43.10
2022-08-04T16:57:47.993Z,43.24
2022-08-04T17:00:15.348Z,43.02
2022-08-04T17:02:43.310Z,42.52
2022-08-04T17:05:39.333Z,42.14
2022-08-04T17:08:29.043Z,41.97
2022-08-04T17:10:54.863Z,40.86
2022-08-04T17:14:02.848Z,40.37
2022-08-04T17:16:17.814Z,39.89
2022-08-04T17:18:50.326Z,39.45
2022-08-04T17:21:20.680Z,38.84
2022-08-04T17:24:16.208Z,38.37
2022-08-04T17:26:41.399Z,38.03
2022-08-04T17:29:09.111Z,37.64
2022-08-04T17:31:38.166Z,37.40
2022-08-04T17:34:15.735Z,37.20
2022-08-04T17:36:44.018Z,36.87
2022-08-04T17:39:23.931Z,36.62
2022-08-04T17:41:56.409Z,36.48
2022-08-04T17:44:37.897Z,36.24
2022-08-04T17:47:16.298Z,36.10
2022-08-04T17:49:52.433Z,35.87
2022-08-04T17:52:39.629Z,35.73
2022-08-04T17:55:07.988Z,35.59
2022-08-04T17:57:43.416Z,35.48
2022-08-04T18:00:19.316Z,35.36
2022-08-04T18:02:53.109Z,35.22
2022-08-04T18:05:54.078Z,35.10
2022-08-04T18:08:46.278Z,34.86
2022-08-04T18:11:02.123Z,34.74
2022-08-04T18:13:29.269Z,34.65
2022-08-04T18:16:03.858Z,34.58
2022-08-04T18:18:30.659Z,34.37
2022-08-04T18:20:59.629Z,34.18
2022-08-04T18:23:31.838Z,33.93
2022-08-04T18:26:01.731Z,33.60
2022-08-04T18:28:29.256Z,33.39
2022-08-04T18:30:59.533Z,33.20
2022-08-04T18:33:40.776Z,33.06
2022-08-04T18:36:33.378Z,32.76
2022-08-04T18:39:11.969Z,32.42
2022-08-04T18:42:01.110Z,32.26
2022-08-04T18:44:28.203Z,32.09
2022-08-04T18:46:56.066Z,31.90
2022-08-04T18:50:31.816Z,31.69
2022-08-04T18:52:14.975Z,31.45
2022-08-04T18:54:42.078Z,31.26
2022-08-04T18:57:32.234Z,31.17
2022-08-04T18:59:55.877Z,31.05
2022-08-04T19:02:23.386Z,30.84
2022-08-04T19:04:53.293Z,30.67
2022-08-04T19:07:29.349Z,30.47
2022-08-04T19:09:58.116Z,30.24
2022-08-04T19:12:28.210Z,30.06
2022-08-04T19:14:58.110Z,29.89
2022-08-04T19:17:49.950Z,29.77
2022-08-04T19:20:24.348Z,29.62
2022-08-04T19:24:23.404Z,29.48
2022-08-04T19:25:59.558Z,29.29
2022-08-04T19:28:29.974Z,29.10
2022-08-04T19:30:58.708Z,28.93
2022-08-04T19:33:25.620Z,28.80
2022-08-04T19:35:56.972Z,28.65
2022-08-04T19:38:23.950Z,28.59
2022-08-04T19:40:52.798Z,28.47
2022-08-04T19:43:20.854Z,28.39
2022-08-04T19:45:50.926Z,28.23
2022-08-04T19:48:19.979Z,28.17
2022-08-04T19:50:47.386Z,28.10
2022-08-04T19:53:19.577Z,28.03
2022-08-04T19:55:49.676Z,27.95
2022-08-04T19:58:19.772Z,27.82
2022-08-04T20:00:53.424Z,27.60
2022-08-04T20:03:22.089Z,27.46
2022-08-04T20:05:53.575Z,27.43
2022-08-04T20:08:28.539Z,27.43
2022-08-04T20:10:55.632Z,27.29
2022-08-04T20:13:30.584Z,27.23
2022-08-04T20:15:58.820Z,27.10
2022-08-04T20:18:35.835Z,27.10
2022-08-04T20:21:19.002Z,27.09
2022-08-04T20:23:48.748Z,26.99
2022-08-04T20:26:16.854Z,26.93
2022-08-04T20:28:45.778Z,26.92
2022-08-04T20:31:18.235Z,26.85
2022-08-04T20:33:49.253Z,26.80
2022-08-04T20:36:20.977Z,26.70
2022-08-04T20:38:51.904Z,26.66
2022-08-04T20:41:20.431Z,26.63
2022-08-04T20:43:49.712Z,26.60
2022-08-04T20:46:29.118Z,26.59
2022-08-04T20:48:57.786Z,26.56
2022-08-04T20:51:33.373Z,26.64
2022-08-04T20:54:01.685Z,26.58
2022-08-04T20:56:30.572Z,26.49
2022-08-04T20:58:59.671Z,26.47
2022-08-04T21:01:27.078Z,26.45
2022-08-04T21:04:27.111Z,26.45
2022-08-04T21:06:54.087Z,26.39
2022-08-04T21:09:26.560Z,26.35
2022-08-04T21:12:07.099Z,26.36
2022-08-04T21:14:34.837Z,26.32
2022-08-04T21:17:03.068Z,26.23
2022-08-04T21:19:31.673Z,26.22
2022-08-04T21:21:58.786Z,26.21
2022-08-04T21:24:26.521Z,26.19
2022-08-04T21:26:57.286Z,26.13
2022-08-04T21:29:34.800Z,26.18
2022-08-04T21:32:07.593Z,26.11
2022-08-04T21:34:39.038Z,26.11
2022-08-04T21:37:09.442Z,26.09
2022-08-04T21:39:50.214Z,26.03
2022-08-04T21:42:27.811Z,26.03
2022-08-04T21:45:09.677Z,26.03
2022-08-04T21:47:46.746Z,25.97
2022-08-04T21:50:20.017Z,25.93
2022-08-04T21:52:47.848Z,25.95
2022-08-04T21:55:15.745Z,25.95
2022-08-04T21:57:42.722Z,25.89
2022-08-04T22:00:10.869Z,25.89
2022-08-04T22:02:46.267Z,25.81
2022-08-04T22:05:19.835Z,25.74
2022-08-04T22:07:50.738Z,25.67
2022-08-04T22:10:32.407Z,25.58
2022-08-04T22:13:00.393Z,25.49
2022-08-04T22:16:04.482Z,25.39
2022-08-04T22:18:20.262Z,25.30
2022-08-04T22:20:51.361Z,25.29
2022-08-04T22:23:19.137Z,25.22
2022-08-04T22:25:55.701Z,25.19
2022-08-04T22:28:25.461Z,25.14
2022-08-04T22:30:54.963Z,25.14
2022-08-04T22:33:22.901Z,25.01
2022-08-04T22:35:50.110Z,24.96
2022-08-04T22:38:28.860Z,24.97
2022-08-04T22:41:12.886Z,24.90
2022-08-04T22:43:40.171Z,24.75
2022-08-04T22:46:12.218Z,24.65
2022-08-04T22:48:39.809Z,24.54
2022-08-04T22:51:10.052Z,24.51
2022-08-04T22:53:39.426Z,24.54
2022-08-04T22:56:10.749Z,24.41
2022-08-04T22:58:51.055Z,24.40
2022-08-04T23:01:18.425Z,24.38
2022-08-04T23:03:55.368Z,24.35
2022-08-04T23:06:25.269Z,24.26
2022-08-04T23:08:52.558Z,24.22
2022-08-04T23:11:19.328Z,24.16
2022-08-04T23:13:46.004Z,24.09
2022-08-04T23:16:14.106Z,24.04
2022-08-04T23:18:42.467Z,23.99
2022-08-04T23:21:15.125Z,24.02
2022-08-04T23:23:45.541Z,24.07
2022-08-04T23:26:27.969Z,23.99
2022-08-04T23:28:56.029Z,23.91
2022-08-04T23:31:23.360Z,23.91
2022-08-04T23:33:51.266Z,23.84
2022-08-04T23:36:26.466Z,23.80
2022-08-04T23:39:04.127Z,23.76
2022-08-04T23:41:53.403Z,23.62
2022-08-04T23:44:24.675Z,23.50
2022-08-04T23:47:03.782Z,23.46
2022-08-04T23:49:43.950Z,23.41
2022-08-04T23:52:28.308Z,23.46
2022-08-04T23:54:58.559Z,23.54
2022-08-04T23:57:31.244Z,23.49
